sensor_id;sensor_type;location;lat;lon;timestamp;P1;durP1;ratioP1;P2;durP2;ratioP2
15055;SDS011;7626;42.674;23.284;2022-07-10T00:00:16;11.17;;;10.17;;
15055;SDS011;7626;42.674;23.284;2022-07-10T00:02:46;9.90;;;9.03;;
15055;SDS011;7626;42.674;23.284;2022-07-10T00:05:14;10.93;;;9.93;;
15055;SDS011;7626;42.674;23.284;2022-07-10T00:07:41;10.87;;;9.90;;
15055;SDS011;7626;42.674;23.284;2022-07-10T00:10:08;10.70;;;9.80;;
15055;SDS011;7626;42.674;23.284;2022-07-10T00:12:35;10.90;;;9.90;;
15055;SDS011;7626;42.674;23.284;2022-07-10T00:15:02;11.13;;;10.13;;
15055;SDS011;7626;42.674;23.284;2022-07-10T00:17:29;10.63;;;9.83;;
15055;SDS011;7626;42.674;23.284;2022-07-10T00:19:56;10.73;;;9.77;;
15055;SDS011;7626;42.674;23.284;2022-07-10T00:22:24;10.70;;;9.90;;
15055;SDS011;7626;42.674;23.284;2022-07-10T00:24:51;11.03;;;10.00;;
15055;SDS011;7626;42.674;23.284;2022-07-10T00:27:18;11.23;;;10.17;;
15055;SDS011;7626;42.674;23.284;2022-07-10T00:29:45;11.47;;;10.47;;
15055;SDS011;7626;42.674;23.284;2022-07-10T00:32:12;13.33;;;10.47;;
15055;SDS011;7626;42.674;23.284;2022-07-10T00:34:39;11.43;;;10.53;;
15055;SDS011;7626;42.674;23.284;2022-07-10T00:37:06;11.63;;;10.63;;
15055;SDS011;7626;42.674;23.284;2022-07-10T00:39:34;11.30;;;10.40;;
15055;SDS011;7626;42.674;23.284;2022-07-10T00:42:07;11.73;;;10.63;;
15055;SDS011;7626;42.674;23.284;2022-07-10T00:44:35;11.23;;;10.33;;
15055;SDS011;7626;42.674;23.284;2022-07-10T00:47:03;10.37;;;9.57;;
15055;SDS011;7626;42.674;23.284;2022-07-10T00:49:30;10.70;;;9.80;;
15055;SDS011;7626;42.674;23.284;2022-07-10T00:51:57;10.87;;;9.87;;
15055;SDS011;7626;42.674;23.284;2022-07-10T00:54:27;11.17;;;10.13;;
15055;SDS011;7626;42.674;23.284;2022-07-10T00:56:56;11.43;;;10.23;;
15055;SDS011;7626;42.674;23.284;2022-07-10T00:59:24;11.07;;;10.17;;
15055;SDS011;7626;42.674;23.284;2022-07-10T01:01:52;10.63;;;9.73;;
15055;SDS011;7626;42.674;23.284;2022-07-10T01:04:20;11.57;;;10.57;;
15055;SDS011;7626;42.674;23.284;2022-07-10T01:06:47;10.77;;;9.90;;
15055;SDS011;7626;42.674;23.284;2022-07-10T01:09:14;10.70;;;9.80;;
15055;SDS011;7626;42.674;23.284;2022-07-10T01:11:41;10.67;;;9.77;;
15055;SDS011;7626;42.674;23.284;2022-07-10T01:14:09;10.50;;;9.60;;
15055;SDS011;7626;42.674;23.284;2022-07-10T01:16:36;10.73;;;9.73;;
15055;SDS011;7626;42.674;23.284;2022-07-10T01:19:03;11.23;;;10.30;;
15055;SDS011;7626;42.674;23.284;2022-07-10T01:21:33;10.90;;;10.00;;
15055;SDS011;7626;42.674;23.284;2022-07-10T01:24:03;10.13;;;9.23;;
15055;SDS011;7626;42.674;23.284;2022-07-10T01:26:32;10.60;;;9.80;;
15055;SDS011;7626;42.674;23.284;2022-07-10T01:29:00;9.93;;;9.13;;
15055;SDS011;7626;42.674;23.284;2022-07-10T01:31:30;10.77;;;9.93;;
15055;SDS011;7626;42.674;23.284;2022-07-10T01:33:58;11.10;;;10.20;;
15055;SDS011;7626;42.674;23.284;2022-07-10T01:36:25;10.67;;;9.77;;
15055;SDS011;7626;42.674;23.284;2022-07-10T01:38:56;10.23;;;9.20;;
15055;SDS011;7626;42.674;23.284;2022-07-10T01:41:24;9.80;;;9.00;;
15055;SDS011;7626;42.674;23.284;2022-07-10T01:43:52;10.20;;;9.33;;
15055;SDS011;7626;42.674;23.284;2022-07-10T01:46:19;11.00;;;9.73;;
15055;SDS011;7626;42.674;23.284;2022-07-10T01:48:46;10.30;;;9.30;;
15055;SDS011;7626;42.674;23.284;2022-07-10T01:51:13;9.77;;;8.97;;
15055;SDS011;7626;42.674;23.284;2022-07-10T01:53:40;10.10;;;9.30;;
15055;SDS011;7626;42.674;23.284;2022-07-10T01:56:09;10.30;;;9.50;;
15055;SDS011;7626;42.674;23.284;2022-07-10T01:58:38;10.10;;;9.10;;
15055;SDS011;7626;42.674;23.284;2022-07-10T02:01:06;10.17;;;9.37;;
15055;SDS011;7626;42.674;23.284;2022-07-10T02:03:33;9.27;;;8.47;;
15055;SDS011;7626;42.674;23.284;2022-07-10T02:06:17;9.80;;;9.00;;
15055;SDS011;7626;42.674;23.284;2022-07-10T02:08:44;9.90;;;9.00;;
15055;SDS011;7626;42.674;23.284;2022-07-10T02:11:12;9.27;;;8.57;;
15055;SDS011;7626;42.674;23.284;2022-07-10T02:13:39;9.70;;;8.83;;
15055;SDS011;7626;42.674;23.284;2022-07-10T02:16:06;9.33;;;8.63;;
15055;SDS011;7626;42.674;23.284;2022-07-10T02:18:33;9.87;;;8.73;;
15055;SDS011;7626;42.674;23.284;2022-07-10T02:21:00;9.60;;;8.70;;
15055;SDS011;7626;42.674;23.284;2022-07-10T02:23:27;9.60;;;8.80;;
15055;SDS011;7626;42.674;23.284;2022-07-10T02:25:54;9.77;;;8.97;;
15055;SDS011;7626;42.674;23.284;2022-07-10T02:28:22;9.63;;;8.73;;
15055;SDS011;7626;42.674;23.284;2022-07-10T02:30:49;9.00;;;8.23;;
15055;SDS011;7626;42.674;23.284;2022-07-10T02:33:16;9.30;;;8.60;;
15055;SDS011;7626;42.674;23.284;2022-07-10T02:35:42;9.40;;;8.60;;
15055;SDS011;7626;42.674;23.284;2022-07-10T02:38:09;9.67;;;8.77;;
15055;SDS011;7626;42.674;23.284;2022-07-10T02:40:36;9.40;;;8.50;;
15055;SDS011;7626;42.674;23.284;2022-07-10T02:43:03;9.20;;;8.30;;
15055;SDS011;7626;42.674;23.284;2022-07-10T02:45:31;9.30;;;8.50;;
15055;SDS011;7626;42.674;23.284;2022-07-10T02:47:58;9.37;;;8.57;;
15055;SDS011;7626;42.674;23.284;2022-07-10T02:50:25;9.10;;;8.30;;
15055;SDS011;7626;42.674;23.284;2022-07-10T02:52:51;9.20;;;8.40;;
15055;SDS011;7626;42.674;23.284;2022-07-10T02:55:18;8.80;;;8.10;;
15055;SDS011;7626;42.674;23.284;2022-07-10T02:57:45;9.57;;;8.87;;
15055;SDS011;7626;42.674;23.284;2022-07-10T03:00:12;9.47;;;8.67;;
15055;SDS011;7626;42.674;23.284;2022-07-10T03:02:41;8.97;;;8.17;;
15055;SDS011;7626;42.674;23.284;2022-07-10T03:05:08;9.10;;;8.30;;
15055;SDS011;7626;42.674;23.284;2022-07-10T03:07:35;8.87;;;7.97;;
15055;SDS011;7626;42.674;23.284;2022-07-10T03:10:02;8.77;;;8.03;;
15055;SDS011;7626;42.674;23.284;2022-07-10T03:12:29;9.37;;;8.57;;
15055;SDS011;7626;42.674;23.284;2022-07-10T03:14:55;8.43;;;7.70;;
15055;SDS011;7626;42.674;23.284;2022-07-10T03:17:24;8.63;;;7.93;;
15055;SDS011;7626;42.674;23.284;2022-07-10T03:19:52;8.90;;;8.20;;
15055;SDS011;7626;42.674;23.284;2022-07-10T03:22:19;9.63;;;8.83;;
15055;SDS011;7626;42.674;23.284;2022-07-10T03:24:46;9.37;;;8.27;;
15055;SDS011;7626;42.674;23.284;2022-07-10T03:27:14;8.90;;;8.10;;
15055;SDS011;7626;42.674;23.284;2022-07-10T03:29:41;9.77;;;8.93;;
15055;SDS011;7626;42.674;23.284;2022-07-10T03:32:08;9.10;;;8.30;;
15055;SDS011;7626;42.674;23.284;2022-07-10T03:34:35;9.13;;;8.30;;
15055;SDS011;7626;42.674;23.284;2022-07-10T03:37:03;9.53;;;8.73;;
15055;SDS011;7626;42.674;23.284;2022-07-10T03:39:30;9.30;;;8.60;;
15055;SDS011;7626;42.674;23.284;2022-07-10T03:41:57;8.83;;;8.17;;
15055;SDS011;7626;42.674;23.284;2022-07-10T03:44:24;8.87;;;8.17;;
15055;SDS011;7626;42.674;23.284;2022-07-10T03:46:51;9.00;;;8.30;;
15055;SDS011;7626;42.674;23.284;2022-07-10T03:49:17;9.17;;;8.37;;
15055;SDS011;7626;42.674;23.284;2022-07-10T03:51:44;8.40;;;7.63;;
15055;SDS011;7626;42.674;23.284;2022-07-10T03:54:13;9.10;;;8.40;;
15055;SDS011;7626;42.674;23.284;2022-07-10T03:56:39;8.90;;;8.10;;
15055;SDS011;7626;42.674;23.284;2022-07-10T03:59:23;9.23;;;8.33;;
15055;SDS011;7626;42.674;23.284;2022-07-10T04:01:50;9.10;;;8.40;;
15055;SDS011;7626;42.674;23.284;2022-07-10T04:04:17;9.27;;;8.37;;
15055;SDS011;7626;42.674;23.284;2022-07-10T04:06:44;8.93;;;8.13;;
15055;SDS011;7626;42.674;23.284;2022-07-10T04:09:11;9.00;;;8.20;;
15055;SDS011;7626;42.674;23.284;2022-07-10T04:11:39;8.80;;;8.10;;
15055;SDS011;7626;42.674;23.284;2022-07-10T04:14:06;9.57;;;8.77;;
15055;SDS011;7626;42.674;23.284;2022-07-10T04:16:32;8.43;;;7.63;;
15055;SDS011;7626;42.674;23.284;2022-07-10T04:18:59;8.63;;;7.93;;
15055;SDS011;7626;42.674;23.284;2022-07-10T04:21:26;10.20;;;8.43;;
15055;SDS011;7626;42.674;23.284;2022-07-10T04:23:53;9.73;;;8.73;;
15055;SDS011;7626;42.674;23.284;2022-07-10T04:26:21;9.33;;;8.53;;
15055;SDS011;7626;42.674;23.284;2022-07-10T04:28:48;9.40;;;7.43;;
15055;SDS011;7626;42.674;23.284;2022-07-10T04:31:15;9.00;;;8.20;;
15055;SDS011;7626;42.674;23.284;2022-07-10T04:33:42;8.90;;;8.20;;
15055;SDS011;7626;42.674;23.284;2022-07-10T04:36:09;8.23;;;7.53;;
15055;SDS011;7626;42.674;23.284;2022-07-10T04:38:35;8.47;;;7.77;;
15055;SDS011;7626;42.674;23.284;2022-07-10T04:41:02;8.13;;;7.50;;
15055;SDS011;7626;42.674;23.284;2022-07-10T04:43:31;8.17;;;7.37;;
15055;SDS011;7626;42.674;23.284;2022-07-10T04:45:57;7.73;;;7.13;;
15055;SDS011;7626;42.674;23.284;2022-07-10T04:48:24;8.03;;;7.23;;
15055;SDS011;7626;42.674;23.284;2022-07-10T04:50:51;8.07;;;7.37;;
15055;SDS011;7626;42.674;23.284;2022-07-10T04:53:18;7.30;;;6.70;;
15055;SDS011;7626;42.674;23.284;2022-07-10T04:55:45;8.30;;;7.50;;
15055;SDS011;7626;42.674;23.284;2022-07-10T04:58:12;7.80;;;7.10;;
15055;SDS011;7626;42.674;23.284;2022-07-10T05:00:40;8.23;;;7.43;;
15055;SDS011;7626;42.674;23.284;2022-07-10T05:03:07;7.60;;;7.00;;
15055;SDS011;7626;42.674;23.284;2022-07-10T05:05:34;8.30;;;7.57;;
15055;SDS011;7626;42.674;23.284;2022-07-10T05:08:01;7.77;;;7.17;;
15055;SDS011;7626;42.674;23.284;2022-07-10T05:10:27;7.83;;;7.03;;
15055;SDS011;7626;42.674;23.284;2022-07-10T05:12:54;7.53;;;6.93;;
15055;SDS011;7626;42.674;23.284;2022-07-10T05:15:22;7.63;;;6.93;;
15055;SDS011;7626;42.674;23.284;2022-07-10T05:17:50;7.53;;;6.87;;
15055;SDS011;7626;42.674;23.284;2022-07-10T05:20:17;7.97;;;7.22;;
15055;SDS011;7626;42.674;23.284;2022-07-10T05:22:44;7.25;;;6.65;;
15055;SDS011;7626;42.674;23.284;2022-07-10T05:25:10;7.25;;;6.72;;
15055;SDS011;7626;42.674;23.284;2022-07-10T05:27:37;7.40;;;6.80;;
15055;SDS011;7626;42.674;23.284;2022-07-10T05:30:04;9.77;;;7.25;;
15055;SDS011;7626;42.674;23.284;2022-07-10T05:32:32;7.38;;;6.70;;
15055;SDS011;7626;42.674;23.284;2022-07-10T05:35:00;7.55;;;6.88;;
15055;SDS011;7626;42.674;23.284;2022-07-10T05:37:27;6.93;;;6.22;;
15055;SDS011;7626;42.674;23.284;2022-07-10T05:39:54;6.97;;;6.43;;
15055;SDS011;7626;42.674;23.284;2022-07-10T05:42:20;7.00;;;6.30;;
15055;SDS011;7626;42.674;23.284;2022-07-10T05:44:47;6.15;;;5.65;;
15055;SDS011;7626;42.674;23.284;2022-07-10T05:47:14;6.20;;;5.70;;
15055;SDS011;7626;42.674;23.284;2022-07-10T05:49:41;7.25;;;6.00;;
15055;SDS011;7626;42.674;23.284;2022-07-10T05:52:09;6.97;;;6.32;;
15055;SDS011;7626;42.674;23.284;2022-07-10T05:54:36;6.65;;;6.15;;
15055;SDS011;7626;42.674;23.284;2022-07-10T05:57:03;6.65;;;6.15;;
15055;SDS011;7626;42.674;23.284;2022-07-10T05:59:32;6.63;;;6.00;;
15055;SDS011;7626;42.674;23.284;2022-07-10T06:01:59;6.38;;;5.78;;
15055;SDS011;7626;42.674;23.284;2022-07-10T06:04:26;6.60;;;5.70;;
15055;SDS011;7626;42.674;23.284;2022-07-10T06:06:53;6.50;;;5.90;;
15055;SDS011;7626;42.674;23.284;2022-07-10T06:09:21;6.22;;;5.72;;
15055;SDS011;7626;42.674;23.284;2022-07-10T06:11:48;6.05;;;5.60;;
15055;SDS011;7626;42.674;23.284;2022-07-10T06:14:15;5.90;;;5.40;;
15055;SDS011;7626;42.674;23.284;2022-07-10T06:16:42;6.00;;;5.40;;
15055;SDS011;7626;42.674;23.284;2022-07-10T06:19:09;5.40;;;5.00;;
15055;SDS011;7626;42.674;23.284;2022-07-10T06:21:35;5.65;;;5.15;;
15055;SDS011;7626;42.674;23.284;2022-07-10T06:24:02;6.45;;;5.15;;
15055;SDS011;7626;42.674;23.284;2022-07-10T06:26:31;5.85;;;5.22;;
15055;SDS011;7626;42.674;23.284;2022-07-10T06:28:58;6.57;;;5.18;;
15055;SDS011;7626;42.674;23.284;2022-07-10T06:31:25;5.45;;;4.85;;
15055;SDS011;7626;42.674;23.284;2022-07-10T06:33:51;6.53;;;5.20;;
15055;SDS011;7626;42.674;23.284;2022-07-10T06:36:18;5.13;;;4.70;;
15055;SDS011;7626;42.674;23.284;2022-07-10T06:38:45;5.45;;;4.75;;
15055;SDS011;7626;42.674;23.284;2022-07-10T06:41:12;5.35;;;4.93;;
15055;SDS011;7626;42.674;23.284;2022-07-10T06:43:40;5.00;;;4.57;;
15055;SDS011;7626;42.674;23.284;2022-07-10T06:46:07;5.25;;;4.85;;
15055;SDS011;7626;42.674;23.284;2022-07-10T06:48:34;5.20;;;4.13;;
15055;SDS011;7626;42.674;23.284;2022-07-10T06:51:02;5.32;;;4.85;;
15055;SDS011;7626;42.674;23.284;2022-07-10T06:53:32;4.93;;;4.53;;
15055;SDS011;7626;42.674;23.284;2022-07-10T06:55:58;4.85;;;4.45;;
15055;SDS011;7626;42.674;23.284;2022-07-10T06:58:25;6.35;;;4.60;;
15055;SDS011;7626;42.674;23.284;2022-07-10T07:00:53;5.68;;;4.70;;
15055;SDS011;7626;42.674;23.284;2022-07-10T07:03:20;5.07;;;4.30;;
15055;SDS011;7626;42.674;23.284;2022-07-10T07:05:47;5.57;;;4.28;;
15055;SDS011;7626;42.674;23.284;2022-07-10T07:08:14;6.93;;;4.88;;
15055;SDS011;7626;42.674;23.284;2022-07-10T07:10:41;6.10;;;4.25;;
15055;SDS011;7626;42.674;23.284;2022-07-10T07:13:09;6.07;;;5.07;;
15055;SDS011;7626;42.674;23.284;2022-07-10T07:15:36;5.15;;;4.65;;
15055;SDS011;7626;42.674;23.284;2022-07-10T07:18:08;6.43;;;4.60;;
15055;SDS011;7626;42.674;23.284;2022-07-10T07:20:37;6.22;;;4.22;;
15055;SDS011;7626;42.674;23.284;2022-07-10T07:23:21;6.88;;;4.82;;
15055;SDS011;7626;42.674;23.284;2022-07-10T07:25:49;5.00;;;4.60;;
15055;SDS011;7626;42.674;23.284;2022-07-10T07:28:17;4.70;;;4.32;;
15055;SDS011;7626;42.674;23.284;2022-07-10T07:30:45;4.80;;;4.30;;
15055;SDS011;7626;42.674;23.284;2022-07-10T07:33:13;5.50;;;4.30;;
15055;SDS011;7626;42.674;23.284;2022-07-10T07:35:40;4.22;;;3.92;;
15055;SDS011;7626;42.674;23.284;2022-07-10T07:38:08;4.70;;;4.30;;
15055;SDS011;7626;42.674;23.284;2022-07-10T07:40:34;5.63;;;4.20;;
15055;SDS011;7626;42.674;23.284;2022-07-10T07:43:02;5.07;;;4.60;;
15055;SDS011;7626;42.674;23.284;2022-07-10T07:45:29;4.57;;;4.18;;
15055;SDS011;7626;42.674;23.284;2022-07-10T07:47:56;4.78;;;4.30;;
15055;SDS011;7626;42.674;23.284;2022-07-10T07:50:27;5.03;;;4.03;;
15055;SDS011;7626;42.674;23.284;2022-07-10T07:52:56;4.93;;;4.03;;
15055;SDS011;7626;42.674;23.284;2022-07-10T07:55:23;6.63;;;4.20;;
15055;SDS011;7626;42.674;23.284;2022-07-10T07:57:50;4.40;;;3.97;;
15055;SDS011;7626;42.674;23.284;2022-07-10T08:00:18;4.55;;;4.15;;
15055;SDS011;7626;42.674;23.284;2022-07-10T08:02:47;4.07;;;3.67;;
15055;SDS011;7626;42.674;23.284;2022-07-10T08:05:14;4.00;;;3.70;;
15055;SDS011;7626;42.674;23.284;2022-07-10T08:07:44;8.90;;;3.92;;
15055;SDS011;7626;42.674;23.284;2022-07-10T08:10:13;4.85;;;3.90;;
15055;SDS011;7626;42.674;23.284;2022-07-10T08:12:42;3.90;;;3.35;;
15055;SDS011;7626;42.674;23.284;2022-07-10T08:15:10;4.97;;;3.50;;
15055;SDS011;7626;42.674;23.284;2022-07-10T08:17:38;4.93;;;3.60;;
15055;SDS011;7626;42.674;23.284;2022-07-10T08:20:06;3.58;;;3.28;;
15055;SDS011;7626;42.674;23.284;2022-07-10T08:22:34;4.97;;;3.58;;
15055;SDS011;7626;42.674;23.284;2022-07-10T08:25:03;3.85;;;3.45;;
15055;SDS011;7626;42.674;23.284;2022-07-10T08:27:30;4.15;;;3.40;;
15055;SDS011;7626;42.674;23.284;2022-07-10T08:29:57;3.50;;;3.20;;
15055;SDS011;7626;42.674;23.284;2022-07-10T08:32:24;5.85;;;3.83;;
15055;SDS011;7626;42.674;23.284;2022-07-10T08:34:52;3.67;;;3.38;;
15055;SDS011;7626;42.674;23.284;2022-07-10T08:37:20;4.88;;;3.47;;
15055;SDS011;7626;42.674;23.284;2022-07-10T08:39:47;4.13;;;3.58;;
15055;SDS011;7626;42.674;23.284;2022-07-10T08:42:15;4.60;;;3.80;;
15055;SDS011;7626;42.674;23.284;2022-07-10T08:44:44;4.03;;;3.70;;
15055;SDS011;7626;42.674;23.284;2022-07-10T08:47:11;3.92;;;3.63;;
15055;SDS011;7626;42.674;23.284;2022-07-10T08:49:38;7.07;;;3.67;;
15055;SDS011;7626;42.674;23.284;2022-07-10T08:52:12;3.78;;;3.40;;
15055;SDS011;7626;42.674;23.284;2022-07-10T08:54:51;5.60;;;3.67;;
15055;SDS011;7626;42.674;23.284;2022-07-10T08:57:20;5.55;;;4.18;;
15055;SDS011;7626;42.674;23.284;2022-07-10T08:59:48;4.20;;;3.78;;
15055;SDS011;7626;42.674;23.284;2022-07-10T09:02:15;6.38;;;4.28;;
15055;SDS011;7626;42.674;23.284;2022-07-10T09:04:42;4.00;;;3.60;;
15055;SDS011;7626;42.674;23.284;2022-07-10T09:07:09;3.72;;;3.35;;
15055;SDS011;7626;42.674;23.284;2022-07-10T09:09:50;3.95;;;3.47;;
15055;SDS011;7626;42.674;23.284;2022-07-10T09:12:18;4.63;;;3.83;;
15055;SDS011;7626;42.674;23.284;2022-07-10T09:14:46;4.03;;;3.60;;
15055;SDS011;7626;42.674;23.284;2022-07-10T09:17:13;4.00;;;3.60;;
15055;SDS011;7626;42.674;23.284;2022-07-10T09:19:39;7.00;;;4.03;;
15055;SDS011;7626;42.674;23.284;2022-07-10T09:22:07;4.00;;;3.70;;
15055;SDS011;7626;42.674;23.284;2022-07-10T09:24:35;4.28;;;3.35;;
15055;SDS011;7626;42.674;23.284;2022-07-10T09:27:03;7.90;;;4.20;;
15055;SDS011;7626;42.674;23.284;2022-07-10T09:29:32;4.47;;;3.33;;
15055;SDS011;7626;42.674;23.284;2022-07-10T09:32:15;4.50;;;3.45;;
15055;SDS011;7626;42.674;23.284;2022-07-10T09:34:43;5.45;;;3.80;;
15055;SDS011;7626;42.674;23.284;2022-07-10T09:37:18;4.10;;;3.65;;
15055;SDS011;7626;42.674;23.284;2022-07-10T09:39:52;4.85;;;3.50;;
15055;SDS011;7626;42.674;23.284;2022-07-10T09:42:27;3.60;;;3.30;;
15055;SDS011;7626;42.674;23.284;2022-07-10T09:47:46;3.47;;;3.17;;
15055;SDS011;7626;42.674;23.284;2022-07-10T09:50:22;3.60;;;3.30;;
15055;SDS011;7626;42.674;23.284;2022-07-10T09:52:51;3.75;;;3.22;;
15055;SDS011;7626;42.674;23.284;2022-07-10T09:55:20;3.83;;;3.25;;
15055;SDS011;7626;42.674;23.284;2022-07-10T09:57:51;4.10;;;3.35;;
15055;SDS011;7626;42.674;23.284;2022-07-10T10:00:22;3.88;;;3.45;;
15055;SDS011;7626;42.674;23.284;2022-07-10T10:02:53;4.85;;;3.35;;
15055;SDS011;7626;42.674;23.284;2022-07-10T10:05:22;3.75;;;2.83;;
15055;SDS011;7626;42.674;23.284;2022-07-10T10:07:59;3.45;;;3.10;;
15055;SDS011;7626;42.674;23.284;2022-07-10T10:10:31;4.25;;;3.20;;
15055;SDS011;7626;42.674;23.284;2022-07-10T10:13:02;5.75;;;3.50;;
15055;SDS011;7626;42.674;23.284;2022-07-10T10:18:03;3.40;;;3.10;;
15055;SDS011;7626;42.674;23.284;2022-07-10T10:20:32;14.15;;;4.07;;
15055;SDS011;7626;42.674;23.284;2022-07-10T10:23:03;8.55;;;3.30;;
15055;SDS011;7626;42.674;23.284;2022-07-10T10:25:31;3.55;;;3.20;;
15055;SDS011;7626;42.674;23.284;2022-07-10T10:27:59;3.67;;;3.15;;
15055;SDS011;7626;42.674;23.284;2022-07-10T10:30:27;3.65;;;3.28;;
15055;SDS011;7626;42.674;23.284;2022-07-10T10:32:57;3.72;;;3.20;;
15055;SDS011;7626;42.674;23.284;2022-07-10T10:35:42;4.20;;;3.30;;
15055;SDS011;7626;42.674;23.284;2022-07-10T10:38:12;4.18;;;3.00;;
15055;SDS011;7626;42.674;23.284;2022-07-10T10:40:39;5.10;;;3.00;;
15055;SDS011;7626;42.674;23.284;2022-07-10T10:43:15;8.10;;;3.55;;
15055;SDS011;7626;42.674;23.284;2022-07-10T10:45:44;3.50;;;3.00;;
15055;SDS011;7626;42.674;23.284;2022-07-10T10:48:13;3.67;;;2.95;;
15055;SDS011;7626;42.674;23.284;2022-07-10T10:50:42;3.30;;;3.00;;
15055;SDS011;7626;42.674;23.284;2022-07-10T10:53:12;4.18;;;3.20;;
15055;SDS011;7626;42.674;23.284;2022-07-10T10:55:41;4.78;;;3.00;;
15055;SDS011;7626;42.674;23.284;2022-07-10T10:58:29;4.15;;;3.20;;
15055;SDS011;7626;42.674;23.284;2022-07-10T11:01:02;4.28;;;3.20;;
15055;SDS011;7626;42.674;23.284;2022-07-10T11:03:31;6.63;;;3.25;;
15055;SDS011;7626;42.674;23.284;2022-07-10T11:05:58;3.20;;;2.80;;
15055;SDS011;7626;42.674;23.284;2022-07-10T11:08:40;3.83;;;3.00;;
15055;SDS011;7626;42.674;23.284;2022-07-10T11:14:06;4.78;;;3.03;;
15055;SDS011;7626;42.674;23.284;2022-07-10T11:16:34;3.38;;;3.08;;
15055;SDS011;7626;42.674;23.284;2022-07-10T11:19:03;4.28;;;3.03;;
15055;SDS011;7626;42.674;23.284;2022-07-10T11:21:32;5.00;;;3.00;;
15055;SDS011;7626;42.674;23.284;2022-07-10T11:24:14;4.72;;;3.00;;
15055;SDS011;7626;42.674;23.284;2022-07-10T11:26:58;4.38;;;2.72;;
15055;SDS011;7626;42.674;23.284;2022-07-10T11:29:35;3.38;;;2.80;;
15055;SDS011;7626;42.674;23.284;2022-07-10T11:32:04;3.50;;;3.20;;
15055;SDS011;7626;42.674;23.284;2022-07-10T11:34:37;5.18;;;3.10;;
15055;SDS011;7626;42.674;23.284;2022-07-10T11:37:13;3.08;;;2.75;;
15055;SDS011;7626;42.674;23.284;2022-07-10T11:39:41;3.08;;;2.88;;
15055;SDS011;7626;42.674;23.284;2022-07-10T11:42:08;3.50;;;3.20;;
15055;SDS011;7626;42.674;23.284;2022-07-10T11:44:35;4.30;;;3.10;;
15055;SDS011;7626;42.674;23.284;2022-07-10T11:47:02;3.72;;;2.92;;
15055;SDS011;7626;42.674;23.284;2022-07-10T11:49:32;3.60;;;3.00;;
15055;SDS011;7626;42.674;23.284;2022-07-10T11:52:04;4.68;;;3.00;;
15055;SDS011;7626;42.674;23.284;2022-07-10T11:54:31;10.88;;;3.25;;
15055;SDS011;7626;42.674;23.284;2022-07-10T11:57:04;7.22;;;3.03;;
15055;SDS011;7626;42.674;23.284;2022-07-10T11:59:33;3.47;;;3.08;;
15055;SDS011;7626;42.674;23.284;2022-07-10T12:02:00;3.70;;;2.45;;
15055;SDS011;7626;42.674;23.284;2022-07-10T12:04:29;4.57;;;3.10;;
15055;SDS011;7626;42.674;23.284;2022-07-10T12:06:57;3.85;;;2.90;;
15055;SDS011;7626;42.674;23.284;2022-07-10T12:09:25;3.50;;;2.70;;
15055;SDS011;7626;42.674;23.284;2022-07-10T12:11:59;4.45;;;2.90;;
15055;SDS011;7626;42.674;23.284;2022-07-10T12:14:26;2.95;;;2.65;;
15055;SDS011;7626;42.674;23.284;2022-07-10T12:16:54;4.05;;;3.08;;
15055;SDS011;7626;42.674;23.284;2022-07-10T12:19:22;3.30;;;2.67;;
15055;SDS011;7626;42.674;23.284;2022-07-10T12:21:50;3.42;;;2.53;;
15055;SDS011;7626;42.674;23.284;2022-07-10T12:24:18;5.97;;;2.63;;
15055;SDS011;7626;42.674;23.284;2022-07-10T12:26:47;4.85;;;2.50;;
15055;SDS011;7626;42.674;23.284;2022-07-10T12:29:18;3.92;;;2.50;;
15055;SDS011;7626;42.674;23.284;2022-07-10T12:31:46;4.65;;;2.60;;
15055;SDS011;7626;42.674;23.284;2022-07-10T12:34:14;3.00;;;2.70;;
15055;SDS011;7626;42.674;23.284;2022-07-10T12:36:42;4.47;;;2.88;;
15055;SDS011;7626;42.674;23.284;2022-07-10T12:39:10;2.90;;;2.60;;
15055;SDS011;7626;42.674;23.284;2022-07-10T12:41:58;2.92;;;2.47;;
15055;SDS011;7626;42.674;23.284;2022-07-10T12:44:33;4.28;;;2.40;;
15055;SDS011;7626;42.674;23.284;2022-07-10T12:47:02;3.42;;;2.60;;
15055;SDS011;7626;42.674;23.284;2022-07-10T12:49:47;3.85;;;2.35;;
15055;SDS011;7626;42.674;23.284;2022-07-10T12:52:18;3.83;;;2.28;;
15055;SDS011;7626;42.674;23.284;2022-07-10T12:54:46;3.00;;;2.10;;
15055;SDS011;7626;42.674;23.284;2022-07-10T12:57:15;5.57;;;2.38;;
15055;SDS011;7626;42.674;23.284;2022-07-10T12:59:41;4.10;;;2.45;;
15055;SDS011;7626;42.674;23.284;2022-07-10T13:02:15;5.53;;;2.00;;
15055;SDS011;7626;42.674;23.284;2022-07-10T13:04:51;4.97;;;2.30;;
15055;SDS011;7626;42.674;23.284;2022-07-10T13:07:19;1.98;;;1.77;;
15055;SDS011;7626;42.674;23.284;2022-07-10T13:09:54;4.40;;;1.80;;
15055;SDS011;7626;42.674;23.284;2022-07-10T13:12:22;2.47;;;1.92;;
15055;SDS011;7626;42.674;23.284;2022-07-10T13:14:49;4.80;;;2.08;;
15055;SDS011;7626;42.674;23.284;2022-07-10T13:17:16;9.07;;;2.55;;
15055;SDS011;7626;42.674;23.284;2022-07-10T13:19:43;3.85;;;1.95;;
15055;SDS011;7626;42.674;23.284;2022-07-10T13:22:10;3.83;;;1.92;;
15055;SDS011;7626;42.674;23.284;2022-07-10T13:24:37;2.97;;;1.90;;
15055;SDS011;7626;42.674;23.284;2022-07-10T13:27:04;2.47;;;2.08;;
15055;SDS011;7626;42.674;23.284;2022-07-10T13:29:33;2.88;;;2.15;;
15055;SDS011;7626;42.674;23.284;2022-07-10T13:32:00;4.47;;;1.65;;
15055;SDS011;7626;42.674;23.284;2022-07-10T13:34:27;2.72;;;2.00;;
15055;SDS011;7626;42.674;23.284;2022-07-10T13:36:55;3.85;;;1.70;;
15055;SDS011;7626;42.674;23.284;2022-07-10T13:39:22;5.00;;;1.77;;
15055;SDS011;7626;42.674;23.284;2022-07-10T13:41:49;2.40;;;1.70;;
15055;SDS011;7626;42.674;23.284;2022-07-10T13:44:16;3.63;;;1.70;;
15055;SDS011;7626;42.674;23.284;2022-07-10T13:46:44;3.30;;;1.80;;
15055;SDS011;7626;42.674;23.284;2022-07-10T13:49:11;2.53;;;1.48;;
15055;SDS011;7626;42.674;23.284;2022-07-10T13:51:38;2.00;;;1.80;;
15055;SDS011;7626;42.674;23.284;2022-07-10T13:54:05;2.53;;;1.90;;
15055;SDS011;7626;42.674;23.284;2022-07-10T13:56:32;3.60;;;1.70;;
15055;SDS011;7626;42.674;23.284;2022-07-10T13:58:59;3.08;;;1.80;;
15055;SDS011;7626;42.674;23.284;2022-07-10T14:01:26;2.45;;;2.03;;
15055;SDS011;7626;42.674;23.284;2022-07-10T14:03:54;2.15;;;1.70;;
15055;SDS011;7626;42.674;23.284;2022-07-10T14:06:21;3.25;;;1.80;;
15055;SDS011;7626;42.674;23.284;2022-07-10T14:08:48;2.25;;;1.70;;
15055;SDS011;7626;42.674;23.284;2022-07-10T14:11:15;4.55;;;2.00;;
15055;SDS011;7626;42.674;23.284;2022-07-10T14:13:43;1.80;;;1.70;;
15055;SDS011;7626;42.674;23.284;2022-07-10T14:16:10;3.50;;;1.80;;
15055;SDS011;7626;42.674;23.284;2022-07-10T14:18:37;4.65;;;1.98;;
15055;SDS011;7626;42.674;23.284;2022-07-10T14:21:07;2.38;;;1.58;;
15055;SDS011;7626;42.674;23.284;2022-07-10T14:23:35;1.50;;;1.40;;
15055;SDS011;7626;42.674;23.284;2022-07-10T14:26:05;3.00;;;1.48;;
15055;SDS011;7626;42.674;23.284;2022-07-10T14:28:32;2.70;;;1.95;;
15055;SDS011;7626;42.674;23.284;2022-07-10T14:31:00;2.35;;;1.70;;
15055;SDS011;7626;42.674;23.284;2022-07-10T14:33:28;1.98;;;1.88;;
15055;SDS011;7626;42.674;23.284;2022-07-10T14:35:56;2.67;;;1.73;;
15055;SDS011;7626;42.674;23.284;2022-07-10T14:38:24;1.75;;;1.60;;
15055;SDS011;7626;42.674;23.284;2022-07-10T14:40:52;3.30;;;1.50;;
15055;SDS011;7626;42.674;23.284;2022-07-10T14:43:20;2.30;;;1.88;;
15055;SDS011;7626;42.674;23.284;2022-07-10T14:45:47;2.53;;;1.63;;
15055;SDS011;7626;42.674;23.284;2022-07-10T14:48:14;1.92;;;1.70;;
15055;SDS011;7626;42.674;23.284;2022-07-10T14:50:40;3.78;;;1.55;;
15055;SDS011;7626;42.674;23.284;2022-07-10T14:53:07;3.60;;;1.95;;
15055;SDS011;7626;42.674;23.284;2022-07-10T14:55:37;2.08;;;1.88;;
15055;SDS011;7626;42.674;23.284;2022-07-10T14:58:04;1.95;;;1.75;;
15055;SDS011;7626;42.674;23.284;2022-07-10T15:00:31;2.17;;;1.98;;